Time;durP1;ratioP1;P1;durP2;ratioP2;P2;SDS_P1;SDS_P2;PMS_P1;PMS_P2;Temp;Humidity;BMP_temperature;BMP_pressure;BME280_temperature;BME280_humidity;BME280_pressure;Samples;Min_cycle;Max_cycle;Signal;HPM_P1;HPM_P2
2021/06/27 00:02:18;;;;;;;8.63;6.80;;;25.90;54.40;;;;;;6133470;28;80423;-70
2021/06/27 00:05:18;;;;;;;12.50;7.20;;;26.00;55.20;;;;;;6127087;28;80314;-70
2021/06/27 00:08:19;;;;;;;9.93;6.57;;;25.90;54.40;;;;;;6130312;28;80853;-70
2021/06/27 00:11:20;;;;;;;10.05;7.07;;;25.90;54.60;;;;;;6123788;28;80534;-70
2021/06/27 00:14:20;;;;;;;9.57;7.22;;;25.90;54.30;;;;;;6131650;28;80662;-70
2021/06/27 00:17:21;;;;;;;11.45;7.35;;;25.90;54.30;;;;;;6122949;28;80499;-69
2021/06/27 00:20:21;;;;;;;11.40;7.13;;;25.80;54.40;;;;;;6129798;28;80953;-70
2021/06/27 00:23:22;;;;;;;10.95;6.88;;;25.90;54.40;;;;;;6126628;28;80159;-69
2021/06/27 00:26:22;;;;;;;11.68;7.30;;;25.80;54.70;;;;;;6107013;28;81862;-69
2021/06/27 00:29:23;;;;;;;13.18;8.60;;;25.80;54.40;;;;;;6133386;28;81058;-69
2021/06/27 00:32:23;;;;;;;10.63;7.45;;;25.80;54.50;;;;;;6129194;28;80887;-69
2021/06/27 00:35:24;;;;;;;9.50;7.35;;;25.80;54.50;;;;;;6132089;28;81448;-69
2021/06/27 00:38:24;;;;;;;9.80;7.97;;;25.80;54.60;;;;;;6125082;28;80572;-70
2021/06/27 00:41:25;;;;;;;15.38;8.02;;;25.90;54.50;;;;;;6121661;28;80529;-70
2021/06/27 00:44:25;;;;;;;9.85;6.18;;;25.90;54.50;;;;;;6132068;28;80566;-70
2021/06/27 00:47:26;;;;;;;11.40;7.00;;;26.00;54.50;;;;;;6133561;28;80489;-69
2021/06/27 00:50:26;;;;;;;12.52;7.95;;;26.00;54.50;;;;;;6130001;28;80840;-70
2021/06/27 00:53:27;;;;;;;15.15;9.20;;;25.90;54.50;;;;;;6132003;28;80913;-70
2021/06/27 00:56:28;;;;;;;11.05;8.25;;;25.90;54.60;;;;;;6134250;28;80050;-68
2021/06/27 00:59:28;;;;;;;13.45;8.15;;;25.80;54.70;;;;;;6137046;28;80641;-68
2021/06/27 01:02:29;;;;;;;16.48;9.25;;;25.70;54.80;;;;;;6126001;28;80650;-68
2021/06/27 01:05:29;;;;;;;13.05;9.57;;;25.70;54.90;;;;;;6125042;28;80978;-69
2021/06/27 01:08:30;;;;;;;13.82;9.93;;;25.70;55.00;;;;;;6130939;28;81958;-69
2021/06/27 01:11:30;;;;;;;14.43;9.50;;;25.70;55.00;;;;;;6131719;28;80880;-69
2021/06/27 01:14:31;;;;;;;12.88;8.73;;;25.70;55.20;;;;;;6127347;28;80791;-69
2021/06/27 01:17:31;;;;;;;13.25;8.65;;;25.50;55.10;;;;;;6133870;28;81233;-69
2021/06/27 01:20:32;;;;;;;13.50;9.55;;;25.50;55.20;;;;;;6138268;28;80415;-69
2021/06/27 01:23:32;;;;;;;14.95;9.40;;;25.50;55.30;;;;;;6139273;28;81549;-70
2021/06/27 01:26:33;;;;;;;15.35;10.20;;;25.40;55.40;;;;;;6139106;28;80535;-70
2021/06/27 01:29:33;;;;;;;18.80;11.05;;;25.40;55.50;;;;;;6136498;28;83488;-70
2021/06/27 01:32:34;;;;;;;15.73;10.27;;;25.30;55.60;;;;;;6133784;28;83188;-69
2021/06/27 01:35:34;;;;;;;14.63;10.05;;;25.30;55.70;;;;;;6127833;28;83956;-70
2021/06/27 01:38:35;;;;;;;17.00;10.40;;;25.30;55.60;;;;;;6126618;28;83336;-67
2021/06/27 01:41:36;;;;;;;16.00;10.55;;;25.30;55.60;;;;;;6128383;28;83669;-67
2021/06/27 01:44:36;;;;;;;11.90;9.18;;;25.20;56.20;;;;;;6127690;28;84128;-67
2021/06/27 01:47:37;;;;;;;14.05;9.30;;;25.30;55.60;;;;;;6135501;28;83071;-66
2021/06/27 01:50:37;;;;;;;12.52;9.20;;;25.30;55.50;;;;;;6136446;28;81018;-67
2021/06/27 01:53:38;;;;;;;12.40;8.48;;;25.40;55.50;;;;;;6133199;28;80366;-68
2021/06/27 01:56:38;;;;;;;13.80;9.48;;;25.50;55.30;;;;;;6128877;28;80554;-68
2021/06/27 01:59:39;;;;;;;14.13;9.65;;;25.50;55.20;;;;;;6128255;28;80513;-70
2021/06/27 02:02:39;;;;;;;17.13;9.98;;;25.50;55.30;;;;;;6129187;28;80687;-68
2021/06/27 02:05:40;;;;;;;12.15;9.95;;;25.50;55.40;;;;;;6128845;28;83237;-68
2021/06/27 02:08:40;;;;;;;14.32;10.23;;;25.50;55.40;;;;;;6126781;28;84381;-67
2021/06/27 02:11:41;;;;;;;13.82;9.55;;;25.50;55.50;;;;;;6127357;28;83090;-68
2021/06/27 02:14:41;;;;;;;14.85;10.52;;;25.60;55.50;;;;;;6133562;28;84108;-68
2021/06/27 02:17:42;;;;;;;13.98;10.77;;;25.60;55.40;;;;;;6133212;28;82835;-67
2021/06/27 02:20:43;;;;;;;15.40;10.90;;;25.60;55.50;;;;;;6123680;28;83774;-67
2021/06/27 02:23:43;;;;;;;18.88;12.70;;;25.60;55.60;;;;;;6133919;28;83464;-70
2021/06/27 02:26:44;;;;;;;17.25;12.05;;;25.50;55.50;;;;;;6133098;28;83390;-69
2021/06/27 02:29:44;;;;;;;19.15;12.15;;;25.50;55.70;;;;;;6133949;28;83513;-69
2021/06/27 02:32:45;;;;;;;14.40;10.25;;;25.40;55.60;;;;;;6130922;28;85637;-69
2021/06/27 02:35:45;;;;;;;14.75;10.38;;;25.40;55.60;;;;;;6131620;28;82988;-69
2021/06/27 02:38:46;;;;;;;17.92;11.27;;;25.30;55.60;;;;;;6133677;28;83147;-69
2021/06/27 02:41:46;;;;;;;15.50;11.45;;;25.30;55.70;;;;;;6119402;28;84582;-69
2021/06/27 02:44:47;;;;;;;12.82;10.07;;;25.30;55.60;;;;;;6124224;28;82928;-69
2021/06/27 02:47:47;;;;;;;13.75;10.13;;;25.20;55.60;;;;;;6129754;28;83024;-69
2021/06/27 02:50:48;;;;;;;17.83;10.55;;;25.20;55.60;;;;;;6115271;28;82897;-69
2021/06/27 02:53:48;;;;;;;13.38;10.15;;;25.20;55.50;;;;;;6126357;28;84094;-69
2021/06/27 02:56:49;;;;;;;16.60;10.13;;;25.20;55.40;;;;;;6122316;28;84148;-69
2021/06/27 02:59:49;;;;;;;14.35;10.93;;;25.20;55.50;;;;;;6132585;28;83415;-70
2021/06/27 03:02:50;;;;;;;13.60;10.18;;;25.20;55.50;;;;;;6126296;28;83289;-70
2021/06/27 03:05:50;;;;;;;13.75;10.60;;;25.10;55.40;;;;;;6133262;28;83789;-69
2021/06/27 03:08:51;;;;;;;15.07;9.68;;;25.10;55.40;;;;;;6127645;28;83251;-71
2021/06/27 03:11:51;;;;;;;15.02;9.90;;;25.10;55.30;;;;;;6136339;28;87905;-71
2021/06/27 03:14:52;;;;;;;12.32;8.90;;;25.10;55.30;;;;;;6130858;28;84007;-69
2021/06/27 03:17:52;;;;;;;15.88;8.75;;;25.20;55.30;;;;;;6134591;28;81124;-69
2021/06/27 03:20:53;;;;;;;13.38;8.30;;;25.20;55.20;;;;;;6135101;28;80813;-69
2021/06/27 03:23:53;;;;;;;11.90;7.63;;;25.20;55.40;;;;;;6134022;28;83031;-69
2021/06/27 03:26:54;;;;;;;9.80;7.03;;;25.30;55.10;;;;;;6130147;28;80634;-69
2021/06/27 03:29:54;;;;;;;14.43;8.27;;;25.40;55.10;;;;;;6132961;28;80734;-68
2021/06/27 03:32:55;;;;;;;10.05;7.88;;;25.50;55.10;;;;;;6133894;28;82957;-68
2021/06/27 03:35:55;;;;;;;12.52;8.45;;;25.50;55.20;;;;;;6114050;28;81159;-68
2021/06/27 03:39:06;;;;;;;13.43;8.63;;;25.50;55.20;;;;;;6125352;28;81416;-68
2021/06/27 03:42:06;;;;;;;14.98;9.23;;;25.50;55.20;;;;;;6126971;28;80434;-68
2021/06/27 03:45:07;;;;;;;13.65;8.55;;;25.50;55.20;;;;;;6131518;28;80148;-67
2021/06/27 03:48:07;;;;;;;8.90;8.00;;;25.50;55.00;;;;;;6131952;28;80658;-67
2021/06/27 03:51:08;;;;;;;13.25;8.23;;;25.60;55.10;;;;;;6126938;28;80514;-66
2021/06/27 03:54:08;;;;;;;12.82;9.20;;;25.50;54.90;;;;;;6123761;28;80563;-66
2021/06/27 03:57:09;;;;;;;10.45;8.07;;;25.60;54.90;;;;;;6126647;28;80757;-68
2021/06/27 04:00:09;;;;;;;13.48;8.85;;;25.60;54.90;;;;;;6119550;28;80670;-68
2021/06/27 04:03:12;;;;;;;15.38;9.25;;;25.50;54.70;;;;;;6132329;28;80083;-68
2021/06/27 04:06:12;;;;;;;11.73;8.75;;;25.40;54.50;;;;;;6132141;28;80467;-68
2021/06/27 04:09:13;;;;;;;12.18;8.60;;;25.30;54.50;;;;;;6131727;28;80842;-69
2021/06/27 04:12:13;;;;;;;12.23;8.38;;;25.30;54.60;;;;;;6134877;28;80642;-67
2021/06/27 04:15:14;;;;;;;12.52;7.65;;;25.30;54.60;;;;;;6105289;28;81033;-69
2021/06/27 04:18:14;;;;;;;11.05;7.38;;;25.30;55.00;;;;;;6115142;28;81391;-67
2021/06/27 04:21:15;;;;;;;9.82;7.15;;;25.40;55.20;;;;;;6121572;28;83624;-69
2021/06/27 04:24:15;;;;;;;12.50;7.10;;;25.50;54.50;;;;;;6129514;28;81164;-71
2021/06/27 04:27:16;;;;;;;11.82;7.30;;;25.50;54.50;;;;;;6130091;28;80681;-64
2021/06/27 04:30:16;;;;;;;11.70;7.15;;;25.50;54.70;;;;;;6129992;28;80538;-66
2021/06/27 04:33:17;;;;;;;11.32;7.57;;;25.60;54.50;;;;;;6135356;28;80440;-65
2021/06/27 04:36:18;;;;;;;18.40;7.90;;;25.50;54.40;;;;;;6128229;28;83252;-66
2021/06/27 04:39:19;;;;;;;15.93;8.45;;;25.60;54.70;;;;;;6124467;28;82697;-66
2021/06/27 04:42:19;;;;;;;12.40;8.73;;;25.50;54.50;;;;;;6121552;28;80659;-67
2021/06/27 04:45:20;;;;;;;16.83;8.95;;;25.50;54.50;;;;;;6120869;28;80558;-64
2021/06/27 04:48:20;;;;;;;16.00;8.73;;;25.50;54.50;;;;;;6126105;28;80957;-64
2021/06/27 04:51:21;;;;;;;18.90;10.23;;;25.50;54.50;;;;;;6131992;28;81175;-64
2021/06/27 04:54:22;;;;;;;16.20;10.60;;;25.60;54.90;;;;;;6127759;28;83106;-63
2021/06/27 04:57:22;;;;;;;16.30;11.40;;;25.60;54.60;;;;;;6128959;28;83731;-63
2021/06/27 05:00:23;;;;;;;24.10;12.52;;;25.70;54.60;;;;;;6129563;28;84309;-63
2021/06/27 05:03:23;;;;;;;17.63;12.93;;;25.70;54.80;;;;;;6127140;28;83499;-64
2021/06/27 05:06:24;;;;;;;18.17;12.10;;;25.70;54.70;;;;;;6134092;28;84066;-67
2021/06/27 05:09:24;;;;;;;20.33;13.00;;;25.70;54.60;;;;;;6132551;28;83046;-67
2021/06/27 05:12:25;;;;;;;19.05;12.32;;;25.80;54.80;;;;;;6123840;28;83144;-68
2021/06/27 05:15:25;;;;;;;16.20;11.60;;;25.80;55.10;;;;;;6130620;28;83693;-67
2021/06/27 05:18:26;;;;;;;15.43;11.20;;;25.80;55.10;;;;;;6113979;28;83200;-68
2021/06/27 05:21:26;;;;;;;19.35;11.77;;;25.90;54.90;;;;;;6127047;28;83118;-66
2021/06/27 05:24:27;;;;;;;13.27;9.68;;;25.90;55.10;;;;;;6125613;28;83045;-66
2021/06/27 05:27:27;;;;;;;20.45;10.50;;;25.90;55.20;;;;;;6132691;28;84602;-66
2021/06/27 05:30:28;;;;;;;16.10;10.68;;;25.90;55.20;;;;;;6110270;28;85495;-67
2021/06/27 05:33:28;;;;;;;14.80;9.50;;;25.90;55.30;;;;;;6106932;28;83594;-67
2021/06/27 05:36:29;;;;;;;15.20;9.55;;;25.90;55.30;;;;;;6130386;28;82882;-66
2021/06/27 05:39:29;;;;;;;19.20;10.77;;;26.00;55.50;;;;;;6128185;28;81420;-67
2021/06/27 05:42:30;;;;;;;15.82;9.50;;;26.00;56.10;;;;;;6126022;28;83311;-66
2021/06/27 05:45:30;;;;;;;12.13;9.10;;;26.00;55.60;;;;;;6116659;28;83296;-66
2021/06/27 05:48:31;;;;;;;17.88;9.52;;;26.10;55.30;;;;;;6127487;28;80490;-66
2021/06/27 05:51:32;;;;;;;17.42;9.85;;;26.10;55.40;;;;;;6127266;28;86163;-66
2021/06/27 05:54:32;;;;;;;12.80;8.75;;;26.10;55.60;;;;;;6131435;28;80794;-66
2021/06/27 05:57:33;;;;;;;13.43;9.30;;;26.20;55.60;;;;;;6125011;28;80245;-65
2021/06/27 06:00:33;;;;;;;11.35;9.38;;;26.20;55.60;;;;;;6135159;28;80942;-66
2021/06/27 06:03:34;;;;;;;13.60;9.18;;;26.20;55.40;;;;;;6136059;28;80398;-66
2021/06/27 06:06:34;;;;;;;12.68;8.77;;;26.20;55.50;;;;;;6130143;28;80349;-65
2021/06/27 06:09:35;;;;;;;13.05;9.07;;;26.30;55.60;;;;;;6124227;28;80604;-66
2021/06/27 06:12:35;;;;;;;16.10;9.00;;;26.30;55.40;;;;;;6136971;28;80983;-67
2021/06/27 06:15:36;;;;;;;10.48;8.63;;;26.30;55.40;;;;;;6134646;28;80550;-66
2021/06/27 06:18:36;;;;;;;13.18;9.30;;;26.30;55.30;;;;;;6129297;28;81039;-65
2021/06/27 06:21:37;;;;;;;14.10;9.20;;;26.30;55.50;;;;;;6132000;28;81690;-66
2021/06/27 06:24:37;;;;;;;12.07;8.82;;;26.30;55.50;;;;;;6132335;28;80429;-67
2021/06/27 06:27:38;;;;;;;12.13;8.52;;;26.30;55.80;;;;;;6127901;28;80344;-66
2021/06/27 06:30:38;;;;;;;14.48;9.57;;;26.30;55.60;;;;;;6131397;28;80363;-68
2021/06/27 06:33:39;;;;;;;13.82;8.40;;;26.30;55.50;;;;;;6132076;28;80360;-68
2021/06/27 06:36:39;;;;;;;12.82;9.77;;;26.20;55.60;;;;;;6118250;28;81708;-67
2021/06/27 06:39:40;;;;;;;11.13;9.00;;;26.20;55.50;;;;;;6127539;28;80946;-67
2021/06/27 06:42:40;;;;;;;18.17;11.13;;;26.20;55.50;;;;;;6131724;28;80743;-67
2021/06/27 06:45:41;;;;;;;14.75;9.88;;;26.20;55.80;;;;;;6126394;28;83636;-67
2021/06/27 06:48:41;;;;;;;15.60;10.15;;;26.20;55.20;;;;;;6132922;28;84040;-67
2021/06/27 06:51:42;;;;;;;24.42;9.52;;;26.20;55.40;;;;;;6128624;28;83220;-67
2021/06/27 06:54:42;;;;;;;17.75;9.10;;;26.20;55.50;;;;;;6134150;28;83072;-64
2021/06/27 06:57:44;;;;;;;10.73;8.45;;;26.20;55.60;;;;;;6125293;28;80453;-65
2021/06/27 07:00:44;;;;;;;11.98;8.65;;;26.20;55.40;;;;;;6132622;28;81019;-63
2021/06/27 07:03:45;;;;;;;17.73;8.70;;;26.30;55.60;;;;;;6128842;28;80771;-67
2021/06/27 07:06:46;;;;;;;16.65;8.52;;;26.20;55.60;;;;;;6134227;28;81880;-67
2021/06/27 07:09:46;;;;;;;17.63;9.27;;;26.20;56.00;;;;;;6134780;28;80851;-66
2021/06/27 07:12:47;;;;;;;12.93;8.55;;;26.20;56.10;;;;;;6135214;28;80823;-67
2021/06/27 07:15:47;;;;;;;17.23;8.68;;;26.30;56.30;;;;;;6133243;28;81308;-67
2021/06/27 07:18:48;;;;;;;16.60;7.53;;;26.30;56.40;;;;;;6124119;28;80374;-67
2021/06/27 07:21:48;;;;;;;9.75;7.82;;;26.30;55.80;;;;;;6129160;28;80839;-67
2021/06/27 07:24:49;;;;;;;14.05;7.95;;;26.30;55.80;;;;;;6124953;28;81489;-67
2021/06/27 07:27:49;;;;;;;14.23;8.52;;;26.30;56.00;;;;;;6126988;28;80365;-68
2021/06/27 07:30:50;;;;;;;19.92;10.80;;;26.30;55.80;;;;;;6137179;28;80533;-65
2021/06/27 07:33:51;;;;;;;11.27;8.27;;;26.30;55.30;;;;;;6128797;28;83248;-66
2021/06/27 07:36:51;;;;;;;12.65;8.68;;;26.30;55.50;;;;;;6131568;28;81793;-67
2021/06/27 07:39:52;;;;;;;13.63;8.48;;;26.30;55.10;;;;;;6133466;28;80589;-67
2021/06/27 07:42:54;;;;;;;21.40;8.68;;;26.30;54.80;;;;;;6130538;28;80623;-67
2021/06/27 07:45:54;;;;;;;11.05;7.93;;;26.40;55.20;;;;;;6129317;28;82558;-67
2021/06/27 07:48:55;;;;;;;16.92;7.05;;;26.40;55.20;;;;;;6134274;28;80570;-66
2021/06/27 07:51:55;;;;;;;18.05;8.40;;;26.40;55.50;;;;;;6133430;28;82726;-67
2021/06/27 07:54:56;;;;;;;13.63;8.00;;;26.40;55.10;;;;;;6134088;28;80581;-65
2021/06/27 07:57:56;;;;;;;11.52;7.65;;;26.40;55.10;;;;;;6132247;28;80680;-66
2021/06/27 08:00:57;;;;;;;11.73;7.93;;;26.40;55.10;;;;;;6133971;28;80625;-66
2021/06/27 08:03:58;;;;;;;16.00;7.82;;;26.40;55.00;;;;;;6132434;28;80581;-67
2021/06/27 08:06:58;;;;;;;11.15;7.68;;;26.40;54.80;;;;;;6129387;28;80351;-67
2021/06/27 08:09:59;;;;;;;121.63;50.17;;;26.40;54.70;;;;;;6130392;28;80824;-67
2021/06/27 08:12:59;;;;;;;215.50;85.00;;;26.50;54.90;;;;;;6124460;28;83252;-68
2021/06/27 08:16:00;;;;;;;282.73;110.93;;;26.40;54.00;;;;;;6126837;28;84058;-65
2021/06/27 08:19:01;;;;;;;261.08;100.70;;;26.40;53.60;;;;;;6128283;28;85705;-68
2021/06/27 08:22:01;;;;;;;233.57;96.57;;;26.40;53.30;;;;;;6126019;28;86331;-67
2021/06/27 08:25:02;;;;;;;251.38;102.13;;;26.40;53.20;;;;;;6119316;28;85426;-66
2021/06/27 08:28:04;;;;;;;256.63;95.32;;;26.40;53.40;;;;;;6126953;28;85669;-67
2021/06/27 08:31:04;;;;;;;213.73;82.25;;;26.40;53.50;;;;;;6131826;28;85249;-67
2021/06/27 08:34:05;;;;;;;171.05;65.10;;;26.40;53.30;;;;;;6127675;28;83837;-66
2021/06/27 08:37:05;;;;;;;142.45;58.35;;;26.50;53.50;;;;;;6104324;28;82888;-67
2021/06/27 08:40:06;;;;;;;120.03;49.83;;;26.50;53.70;;;;;;6102636;28;83728;-66
2021/06/27 08:43:06;;;;;;;110.18;41.20;;;26.50;53.70;;;;;;6102889;28;84224;-65
2021/06/27 08:46:09;;;;;;;96.57;39.22;;;26.50;53.90;;;;;;6119947;28;89997;-68
2021/06/27 08:49:10;;;;;;;71.40;33.65;;;26.50;54.20;;;;;;6129299;28;83342;-64
2021/06/27 08:52:15;;;;;;;64.43;29.98;;;26.50;54.70;;;;;;6127461;28;83127;-65
2021/06/27 08:55:15;;;;;;;54.05;24.60;;;26.60;55.90;;;;;;6128049;28;83398;-66
2021/06/27 08:58:16;;;;;;;43.28;18.77;;;26.60;54.00;;;;;;6119758;28;84060;-64
2021/06/27 09:01:16;;;;;;;39.92;17.48;;;26.60;54.90;;;;;;6127972;28;86883;-65
2021/06/27 09:04:18;;;;;;;36.35;15.63;;;26.60;54.40;;;;;;6128517;28;83606;-66
2021/06/27 09:07:19;;;;;;;36.00;15.65;;;26.60;55.30;;;;;;6126360;28;83362;-64
2021/06/27 09:10:19;;;;;;;23.00;12.73;;;26.60;55.20;;;;;;6125671;28;82919;-65
2021/06/27 09:13:20;;;;;;;29.38;12.07;;;26.60;55.40;;;;;;6127385;28;83189;-67
2021/06/27 09:16:20;;;;;;;22.75;11.32;;;26.70;55.00;;;;;;6103543;28;83306;-66
2021/06/27 09:19:21;;;;;;;22.58;10.98;;;26.70;54.90;;;;;;6128941;28;84240;-66
2021/06/27 09:22:21;;;;;;;14.10;10.00;;;26.70;55.10;;;;;;6123347;28;83388;-66
2021/06/27 09:25:22;;;;;;;12.93;8.73;;;26.70;54.80;;;;;;6122410;28;87066;-64
2021/06/27 09:28:22;;;;;;;11.88;7.78;;;26.70;53.60;;;;;;6129502;28;83022;-65
2021/06/27 09:31:23;;;;;;;10.65;7.75;;;26.70;52.90;;;;;;6132789;28;80758;-64
2021/06/27 09:34:23;;;;;;;13.52;7.50;;;26.70;52.50;;;;;;6130617;28;80658;-64
2021/06/27 09:37:24;;;;;;;11.75;8.30;;;26.70;52.90;;;;;;6124720;28;81110;-64
2021/06/27 09:40:24;;;;;;;13.27;9.05;;;26.70;53.60;;;;;;6123224;28;83477;-66
2021/06/27 09:43:25;;;;;;;11.55;7.63;;;26.70;53.80;;;;;;6130433;28;80636;-65
2021/06/27 09:46:25;;;;;;;12.27;8.98;;;26.70;53.80;;;;;;6130811;28;81587;-64
2021/06/27 09:49:26;;;;;;;9.77;7.22;;;26.70;53.90;;;;;;6136061;28;82999;-65
2021/06/27 09:52:26;;;;;;;11.77;8.65;;;26.70;53.70;;;;;;6136918;28;81283;-66
2021/06/27 09:55:27;;;;;;;8.50;7.28;;;26.70;53.60;;;;;;6131424;28;81678;-66
2021/06/27 09:58:27;;;;;;;11.48;7.55;;;26.70;53.60;;;;;;6137528;28;80326;-66
2021/06/27 10:01:28;;;;;;;9.40;6.97;;;26.70;53.50;;;;;;6122775;28;81733;-66
2021/06/27 10:04:28;;;;;;;8.68;6.70;;;26.70;53.30;;;;;;6128803;28;80712;-66
2021/06/27 10:07:29;;;;;;;12.35;7.60;;;26.70;53.10;;;;;;6135050;28;80106;-66
2021/06/27 10:10:29;;;;;;;7.97;6.97;;;26.70;52.50;;;;;;6133650;28;80406;-66
2021/06/27 10:13:30;;;;;;;11.00;7.40;;;26.70;52.50;;;;;;6127441;28;81496;-66
2021/06/27 10:16:30;;;;;;;11.02;7.95;;;26.70;51.40;;;;;;6111328;28;80394;-64
2021/06/27 10:19:31;;;;;;;8.88;7.38;;;26.70;50.70;;;;;;6132699;28;82329;-66
2021/06/27 10:22:31;;;;;;;12.82;7.28;;;26.70;50.50;;;;;;6134744;28;81093;-66
2021/06/27 10:25:32;;;;;;;11.10;7.70;;;26.70;50.20;;;;;;6132990;28;81460;-66
2021/06/27 10:28:32;;;;;;;9.10;8.02;;;26.70;50.20;;;;;;6129033;28;81124;-67
2021/06/27 10:31:33;;;;;;;10.93;7.63;;;26.70;50.40;;;;;;6132219;28;83750;-66
2021/06/27 10:34:33;;;;;;;9.05;7.53;;;26.80;50.70;;;;;;6128369;28;80387;-66
2021/06/27 10:37:34;;;;;;;8.05;7.20;;;26.80;51.70;;;;;;6132943;28;81012;-64
2021/06/27 10:40:34;;;;;;;9.27;6.80;;;26.80;51.00;;;;;;6126233;28;81664;-66
2021/06/27 10:43:35;;;;;;;10.02;6.75;;;26.80;51.10;;;;;;6131762;28;82672;-66
2021/06/27 10:46:35;;;;;;;8.40;6.70;;;26.80;51.10;;;;;;6130568;28;81951;-66
2021/06/27 10:49:36;;;;;;;8.20;7.40;;;26.80;51.20;;;;;;6135936;28;80514;-67
2021/06/27 10:52:36;;;;;;;10.98;7.60;;;26.80;51.50;;;;;;6130477;28;80636;-68
2021/06/27 10:55:37;;;;;;;11.90;8.05;;;26.80;51.70;;;;;;6137154;28;81600;-66
2021/06/27 10:58:37;;;;;;;11.15;7.93;;;26.80;51.70;;;;;;6132609;28;80478;-66
2021/06/27 11:01:38;;;;;;;13.65;7.72;;;26.80;51.70;;;;;;6132739;28;80796;-66
2021/06/27 11:04:38;;;;;;;10.88;7.97;;;26.70;52.30;;;;;;6133071;28;82143;-67
2021/06/27 11:07:39;;;;;;;9.68;7.07;;;26.80;53.00;;;;;;6128401;28;81447;-67
2021/06/27 11:10:39;;;;;;;19.63;8.40;;;26.70;52.30;;;;;;6123530;28;80303;-68
2021/06/27 11:13:40;;;;;;;15.93;7.30;;;26.70;52.30;;;;;;6129010;28;80697;-68
2021/06/27 11:16:40;;;;;;;22.10;8.43;;;26.70;51.80;;;;;;6117240;28;81976;-67
2021/06/27 11:19:41;;;;;;;34.45;9.75;;;26.70;51.90;;;;;;6134698;28;80474;-67
2021/06/27 11:22:42;;;;;;;25.10;8.07;;;26.70;52.10;;;;;;6135211;28;86889;-67
2021/06/27 11:25:42;;;;;;;36.72;9.63;;;26.70;51.60;;;;;;6134431;28;82807;-67
2021/06/27 11:28:43;;;;;;;25.15;7.60;;;26.60;51.60;;;;;;6126246;28;80603;-66
2021/06/27 11:31:43;;;;;;;14.38;6.95;;;26.60;51.80;;;;;;6137140;28;81909;-66
2021/06/27 11:34:44;;;;;;;11.35;6.90;;;26.60;52.20;;;;;;6135759;28;80528;-67
2021/06/27 11:37:44;;;;;;;12.75;6.57;;;26.60;52.00;;;;;;6131206;28;80832;-66
2021/06/27 11:40:45;;;;;;;16.77;5.93;;;26.70;52.10;;;;;;6132932;28;81358;-66
2021/06/27 11:43:45;;;;;;;11.25;6.40;;;26.70;52.10;;;;;;6122426;28;80976;-67
2021/06/27 11:46:46;;;;;;;10.77;5.88;;;26.70;52.50;;;;;;6137758;28;80743;-66
2021/06/27 11:49:47;;;;;;;10.00;5.32;;;26.70;52.60;;;;;;6131605;28;80817;-67
2021/06/27 11:52:47;;;;;;;16.70;6.10;;;26.70;52.50;;;;;;6132628;28;80411;-66
2021/06/27 11:56:03;;;;;;;10.70;5.15;;;26.70;51.80;;;;;;6122661;28;80433;-66
2021/06/27 11:59:04;;;;;;;;;;;26.80;51.00;;;;;;6126775;28;81164;-67
2021/06/27 12:02:04;;;;;;;15.10;5.40;;;26.80;51.50;;;;;;6124866;28;80310;-67
2021/06/27 12:05:05;;;;;;;7.20;5.15;;;26.80;50.60;;;;;;6126292;28;80973;-66
2021/06/27 12:08:05;;;;;;;7.45;5.32;;;26.80;49.90;;;;;;6130254;28;80778;-67
2021/06/27 12:11:06;;;;;;;5.60;5.00;;;26.80;49.40;;;;;;6131223;28;80684;-67
2021/06/27 12:14:06;;;;;;;5.35;4.80;;;26.80;49.30;;;;;;6131940;28;80928;-67
2021/06/27 12:17:07;;;;;;;6.18;5.00;;;26.80;49.00;;;;;;6123562;28;80410;-67
2021/06/27 12:20:07;;;;;;;8.48;5.95;;;26.80;49.20;;;;;;6125747;28;83317;-66
2021/06/27 12:23:08;;;;;;;5.43;4.70;;;26.80;49.10;;;;;;6128051;28;80610;-66
2021/06/27 12:26:08;;;;;;;6.90;5.68;;;26.80;49.70;;;;;;6127619;28;80846;-66
2021/06/27 12:29:09;;;;;;;10.63;5.30;;;26.80;49.70;;;;;;6134413;28;80859;-67
2021/06/27 12:32:10;;;;;;;5.85;4.97;;;26.80;49.60;;;;;;6134030;28;81270;-66
2021/06/27 12:35:10;;;;;;;6.43;5.53;;;26.80;49.90;;;;;;6133216;28;80425;-65
2021/06/27 12:38:11;;;;;;;6.40;5.80;;;26.80;49.60;;;;;;6137108;28;80832;-66
2021/06/27 12:41:11;;;;;;;9.93;5.70;;;26.80;50.00;;;;;;6125165;28;83231;-66
2021/06/27 12:44:12;;;;;;;6.38;5.78;;;26.80;49.60;;;;;;6121269;28;80585;-66
2021/06/27 12:47:12;;;;;;;9.63;5.30;;;26.90;50.20;;;;;;6128492;28;80400;-67
2021/06/27 12:50:13;;;;;;;7.32;6.15;;;26.80;50.00;;;;;;6124322;28;80785;-66
2021/06/27 12:53:13;;;;;;;11.80;7.15;;;26.80;49.70;;;;;;6125085;28;80571;-67
2021/06/27 12:56:17;;;;;;;7.28;5.88;;;26.80;49.80;;;;;;6132441;28;80545;-66
2021/06/27 12:59:18;;;;;;;8.45;6.38;;;26.80;49.80;;;;;;6124689;28;80434;-67
2021/06/27 13:02:21;;;;;;;8.48;6.28;;;26.80;50.00;;;;;;6126053;28;80266;-67
2021/06/27 13:05:22;;;;;;;9.02;6.53;;;26.80;50.00;;;;;;6125781;28;81182;-66
2021/06/27 13:08:22;;;;;;;8.20;5.85;;;26.80;50.30;;;;;;6124879;28;80525;-66
2021/06/27 13:11:23;;;;;;;7.97;6.60;;;26.80;49.90;;;;;;6124244;28;81113;-66
2021/06/27 13:14:23;;;;;;;10.18;7.32;;;26.80;49.80;;;;;;6131685;28;80696;-67
2021/06/27 13:17:24;;;;;;;7.47;6.40;;;26.80;49.60;;;;;;6134337;28;80591;-66
2021/06/27 13:20:24;;;;;;;8.65;6.63;;;26.80;49.60;;;;;;6122885;28;80428;-67
2021/06/27 13:23:31;;;;;;;9.15;6.78;;;26.80;49.60;;;;;;6135668;28;81424;-66
2021/06/27 13:26:32;;;;;;;7.88;5.63;;;26.80;50.00;;;;;;6136191;28;80584;-67
2021/06/27 13:29:32;;;;;;;6.97;6.28;;;26.90;50.10;;;;;;6134295;28;82222;-68
2021/06/27 13:32:33;;;;;;;12.32;6.20;;;26.90;49.10;;;;;;6135437;28;81520;-69
2021/06/27 13:35:33;;;;;;;7.13;6.43;;;26.90;48.70;;;;;;6133580;28;80575;-67
2021/06/27 13:38:34;;;;;;;7.45;6.68;;;26.90;48.70;;;;;;6129483;28;81217;-66
2021/06/27 13:41:35;;;;;;;9.50;6.55;;;26.90;48.10;;;;;;6133586;28;81396;-68
2021/06/27 13:44:35;;;;;;;8.05;5.70;;;26.90;48.50;;;;;;6138220;28;80701;-69
2021/06/27 13:47:36;;;;;;;6.72;6.05;;;26.90;47.90;;;;;;6130620;28;80660;-67
2021/06/27 13:50:36;;;;;;;9.90;6.60;;;27.00;47.70;;;;;;6132823;28;81306;-68
2021/06/27 13:53:37;;;;;;;6.18;5.57;;;26.90;47.30;;;;;;6130504;28;85405;-68
2021/06/27 13:56:37;;;;;;;6.70;5.82;;;27.00;47.50;;;;;;6133389;28;81419;-67
2021/06/27 13:59:38;;;;;;;6.53;5.70;;;27.00;48.60;;;;;;6132419;28;80589;-68
2021/06/27 14:02:39;;;;;;;6.47;5.75;;;27.00;47.60;;;;;;6133377;28;82348;-67
2021/06/27 14:05:39;;;;;;;8.00;5.97;;;27.00;47.00;;;;;;6131820;28;80357;-67
2021/06/27 14:08:40;;;;;;;9.35;6.03;;;27.10;46.90;;;;;;6132347;28;81264;-68
2021/06/27 14:11:42;;;;;;;6.93;6.05;;;27.00;47.10;;;;;;6118387;28;80408;-68
2021/06/27 14:14:43;;;;;;;6.55;5.88;;;27.10;47.30;;;;;;6121115;28;81256;-66
2021/06/27 14:17:43;;;;;;;7.78;5.70;;;27.10;47.80;;;;;;6133496;28;80286;-68
2021/06/27 14:20:44;;;;;;;8.43;5.53;;;27.10;47.30;;;;;;6135844;28;81337;-68
2021/06/27 14:23:44;;;;;;;6.40;5.75;;;27.10;47.40;;;;;;6133008;28;81398;-69
2021/06/27 14:26:45;;;;;;;7.78;6.28;;;27.10;47.60;;;;;;6136111;28;81091;-67
2021/06/27 14:29:45;;;;;;;7.32;5.70;;;27.10;48.60;;;;;;6136360;28;81259;-66
2021/06/27 14:32:46;;;;;;;6.00;5.40;;;27.00;48.70;;;;;;6132735;28;81088;-67
2021/06/27 14:35:46;;;;;;;12.45;5.60;;;27.10;48.70;;;;;;6122450;28;80348;-69
2021/06/27 14:38:47;;;;;;;14.43;6.22;;;27.00;48.30;;;;;;6129808;28;80670;-70
2021/06/27 14:41:52;;;;;;;8.25;5.88;;;27.00;48.10;;;;;;6134192;28;80699;-69
2021/06/27 14:44:52;;;;;;;5.38;4.85;;;27.00;47.80;;;;;;6132896;28;81724;-69
2021/06/27 14:47:53;;;;;;;6.95;5.75;;;27.00;47.70;;;;;;6133615;28;80488;-71
2021/06/27 14:50:54;;;;;;;6.85;5.53;;;27.00;47.70;;;;;;6131227;28;81898;-70
2021/06/27 14:53:54;;;;;;;7.78;4.78;;;27.00;47.40;;;;;;6139617;28;81689;-72
2021/06/27 14:56:55;;;;;;;6.03;5.43;;;27.00;47.50;;;;;;6130948;28;81841;-70
2021/06/27 14:59:55;;;;;;;6.70;5.32;;;27.00;47.60;;;;;;6132701;28;80451;-70
2021/06/27 15:02:56;;;;;;;13.23;5.55;;;27.00;48.10;;;;;;6127350;28;80813;-70
2021/06/27 15:05:56;;;;;;;8.30;5.75;;;27.00;48.60;;;;;;6136194;28;80298;-70
2021/06/27 15:08:57;;;;;;;8.68;5.63;;;27.00;48.80;;;;;;6135472;28;80447;-71
2021/06/27 15:11:57;;;;;;;9.50;6.00;;;27.00;49.40;;;;;;6136548;28;80854;-71
2021/06/27 15:14:58;;;;;;;5.57;5.07;;;27.00;49.20;;;;;;6132226;28;80389;-71
2021/06/27 15:17:58;;;;;;;7.13;5.88;;;27.00;49.50;;;;;;6132109;28;82100;-71
2021/06/27 15:20:59;;;;;;;7.05;5.88;;;27.00;49.80;;;;;;6134946;28;80402;-71
2021/06/27 15:23:59;;;;;;;6.63;5.43;;;27.00;50.00;;;;;;6137539;28;83109;-71
2021/06/27 15:27:00;;;;;;;7.30;6.00;;;27.00;49.80;;;;;;6132398;28;80550;-71
2021/06/27 15:30:00;;;;;;;9.23;5.57;;;27.00;49.80;;;;;;6126768;28;81122;-68